sensor_id;sensor_type;location;lat;lon;timestamp;temperature;humidity
678;DHT22;321;48.814;9.132;2023-05-07T00:00:19;15.00;99.90
678;DHT22;321;48.814;9.132;2023-05-07T00:02:45;15.00;99.90
678;DHT22;321;48.814;9.132;2023-05-07T00:05:11;14.90;99.90
678;DHT22;321;48.814;9.132;2023-05-07T00:07:37;14.90;99.90
678;DHT22;321;48.814;9.132;2023-05-07T00:10:04;15.00;99.90
678;DHT22;321;48.814;9.132;2023-05-07T00:12:31;15.00;99.90
678;DHT22;321;48.814;9.132;2023-05-07T00:15:02;14.90;99.90
678;DHT22;321;48.814;9.132;2023-05-07T00:17:28;14.80;99.90
678;DHT22;321;48.814;9.132;2023-05-07T00:19:54;14.90;99.90
678;DHT22;321;48.814;9.132;2023-05-07T00:22:19;15.00;99.90
678;DHT22;321;48.814;9.132;2023-05-07T00:24:45;14.90;99.90
678;DHT22;321;48.814;9.132;2023-05-07T00:27:11;14.90;99.90
678;DHT22;321;48.814;9.132;2023-05-07T00:29:36;14.90;99.90
678;DHT22;321;48.814;9.132;2023-05-07T00:32:02;14.90;99.90
678;DHT22;321;48.814;9.132;2023-05-07T00:34:27;14.90;99.90
678;DHT22;321;48.814;9.132;2023-05-07T00:36:53;14.90;99.90
678;DHT22;321;48.814;9.132;2023-05-07T00:39:18;14.90;99.90
678;DHT22;321;48.814;9.132;2023-05-07T00:41:44;14.80;99.90
678;DHT22;321;48.814;9.132;2023-05-07T00:44:10;14.70;99.90
678;DHT22;321;48.814;9.132;2023-05-07T00:46:35;14.70;99.90
678;DHT22;321;48.814;9.132;2023-05-07T00:49:01;14.70;99.90
678;DHT22;321;48.814;9.132;2023-05-07T00:51:27;14.70;99.90
678;DHT22;321;48.814;9.132;2023-05-07T00:53:53;14.60;99.90
678;DHT22;321;48.814;9.132;2023-05-07T00:56:21;14.60;99.90
678;DHT22;321;48.814;9.132;2023-05-07T00:58:47;14.60;99.90
678;DHT22;321;48.814;9.132;2023-05-07T01:01:12;14.70;99.90
678;DHT22;321;48.814;9.132;2023-05-07T01:03:38;14.60;99.90
678;DHT22;321;48.814;9.132;2023-05-07T01:06:05;14.70;99.90
678;DHT22;321;48.814;9.132;2023-05-07T01:08:32;14.60;99.90
678;DHT22;321;48.814;9.132;2023-05-07T01:10:58;14.50;99.90
678;DHT22;321;48.814;9.132;2023-05-07T01:13:25;14.50;99.90
678;DHT22;321;48.814;9.132;2023-05-07T01:15:50;14.40;99.90
678;DHT22;321;48.814;9.132;2023-05-07T01:18:16;14.40;99.90
678;DHT22;321;48.814;9.132;2023-05-07T01:20:42;14.30;99.90
678;DHT22;321;48.814;9.132;2023-05-07T01:23:08;14.40;99.90
678;DHT22;321;48.814;9.132;2023-05-07T01:25:34;14.50;99.90
678;DHT22;321;48.814;9.132;2023-05-07T01:28:00;14.50;99.90
678;DHT22;321;48.814;9.132;2023-05-07T01:30:27;14.40;99.90
678;DHT22;321;48.814;9.132;2023-05-07T01:33:06;14.40;99.90
678;DHT22;321;48.814;9.132;2023-05-07T01:35:40;14.20;99.90
678;DHT22;321;48.814;9.132;2023-05-07T01:38:07;14.30;99.90
678;DHT22;321;48.814;9.132;2023-05-07T01:40:33;14.30;99.90
678;DHT22;321;48.814;9.132;2023-05-07T01:43:00;14.30;99.90
678;DHT22;321;48.814;9.132;2023-05-07T01:45:26;14.40;99.90
678;DHT22;321;48.814;9.132;2023-05-07T01:47:53;14.30;99.90
678;DHT22;321;48.814;9.132;2023-05-07T01:50:19;14.30;99.90
678;DHT22;321;48.814;9.132;2023-05-07T01:52:46;14.30;99.90
678;DHT22;321;48.814;9.132;2023-05-07T01:55:12;14.30;99.90
678;DHT22;321;48.814;9.132;2023-05-07T01:57:38;14.40;99.90
678;DHT22;321;48.814;9.132;2023-05-07T02:00:04;14.40;99.90
678;DHT22;321;48.814;9.132;2023-05-07T02:02:30;14.50;99.90
678;DHT22;321;48.814;9.132;2023-05-07T02:04:56;14.30;99.90
678;DHT22;321;48.814;9.132;2023-05-07T02:07:22;14.30;99.90
678;DHT22;321;48.814;9.132;2023-05-07T02:09:47;14.40;99.90
678;DHT22;321;48.814;9.132;2023-05-07T02:12:13;14.40;99.90
678;DHT22;321;48.814;9.132;2023-05-07T02:14:38;14.30;99.90
678;DHT22;321;48.814;9.132;2023-05-07T02:17:04;14.40;99.90
678;DHT22;321;48.814;9.132;2023-05-07T02:19:30;14.40;99.90
678;DHT22;321;48.814;9.132;2023-05-07T02:21:55;14.40;99.90
678;DHT22;321;48.814;9.132;2023-05-07T02:24:21;14.40;99.90
678;DHT22;321;48.814;9.132;2023-05-07T02:26:46;14.40;99.90
678;DHT22;321;48.814;9.132;2023-05-07T02:29:12;14.50;99.90
678;DHT22;321;48.814;9.132;2023-05-07T02:31:37;14.40;99.90
678;DHT22;321;48.814;9.132;2023-05-07T02:34:03;14.40;99.90
678;DHT22;321;48.814;9.132;2023-05-07T02:36:29;14.40;99.90
678;DHT22;321;48.814;9.132;2023-05-07T02:38:54;14.40;99.90
678;DHT22;321;48.814;9.132;2023-05-07T02:41:20;14.40;99.90
678;DHT22;321;48.814;9.132;2023-05-07T02:43:46;14.40;99.90
678;DHT22;321;48.814;9.132;2023-05-07T02:46:12;14.30;99.90
678;DHT22;321;48.814;9.132;2023-05-07T02:48:37;14.20;99.90
678;DHT22;321;48.814;9.132;2023-05-07T02:51:04;14.20;99.90
678;DHT22;321;48.814;9.132;2023-05-07T02:53:31;14.10;99.90
678;DHT22;321;48.814;9.132;2023-05-07T02:55:58;14.10;99.90
678;DHT22;321;48.814;9.132;2023-05-07T02:58:24;14.10;99.90
678;DHT22;321;48.814;9.132;2023-05-07T03:00:50;14.00;99.90
678;DHT22;321;48.814;9.132;2023-05-07T03:03:15;13.90;99.90
678;DHT22;321;48.814;9.132;2023-05-07T03:05:41;14.00;99.90
678;DHT22;321;48.814;9.132;2023-05-07T03:08:07;13.90;99.90
678;DHT22;321;48.814;9.132;2023-05-07T03:10:33;13.80;99.90
678;DHT22;321;48.814;9.132;2023-05-07T03:12:58;13.60;99.90
678;DHT22;321;48.814;9.132;2023-05-07T03:15:24;13.60;99.90
678;DHT22;321;48.814;9.132;2023-05-07T03:17:49;13.70;99.90
678;DHT22;321;48.814;9.132;2023-05-07T03:20:15;13.80;99.90
678;DHT22;321;48.814;9.132;2023-05-07T03:22:41;13.70;99.90
678;DHT22;321;48.814;9.132;2023-05-07T03:25:08;13.70;99.90
678;DHT22;321;48.814;9.132;2023-05-07T03:27:34;13.50;99.90
678;DHT22;321;48.814;9.132;2023-05-07T03:30:00;13.60;99.90
678;DHT22;321;48.814;9.132;2023-05-07T03:32:26;13.60;99.90
678;DHT22;321;48.814;9.132;2023-05-07T03:34:51;13.60;99.90
678;DHT22;321;48.814;9.132;2023-05-07T03:37:17;13.60;99.90
678;DHT22;321;48.814;9.132;2023-05-07T03:39:43;13.60;99.90
678;DHT22;321;48.814;9.132;2023-05-07T03:42:08;13.60;99.90
678;DHT22;321;48.814;9.132;2023-05-07T03:44:34;13.50;99.90
678;DHT22;321;48.814;9.132;2023-05-07T03:47:01;13.50;99.90
678;DHT22;321;48.814;9.132;2023-05-07T03:49:27;13.50;99.90
678;DHT22;321;48.814;9.132;2023-05-07T03:51:52;13.50;99.90
678;DHT22;321;48.814;9.132;2023-05-07T03:54:18;13.50;99.90
678;DHT22;321;48.814;9.132;2023-05-07T03:56:44;13.50;99.90
678;DHT22;321;48.814;9.132;2023-05-07T03:59:09;13.50;99.90
678;DHT22;321;48.814;9.132;2023-05-07T04:01:35;13.50;99.90
678;DHT22;321;48.814;9.132;2023-05-07T04:04:01;13.50;99.90
678;DHT22;321;48.814;9.132;2023-05-07T04:06:26;13.50;99.90
678;DHT22;321;48.814;9.132;2023-05-07T04:11:18;13.40;99.90
678;DHT22;321;48.814;9.132;2023-05-07T04:13:43;13.40;99.90
678;DHT22;321;48.814;9.132;2023-05-07T04:16:09;13.40;99.90
678;DHT22;321;48.814;9.132;2023-05-07T04:18:34;13.40;99.90
678;DHT22;321;48.814;9.132;2023-05-07T04:21:00;13.40;99.90
678;DHT22;321;48.814;9.132;2023-05-07T04:23:26;13.50;99.90
678;DHT22;321;48.814;9.132;2023-05-07T04:25:51;13.40;99.90
678;DHT22;321;48.814;9.132;2023-05-07T04:28:17;13.40;99.90
678;DHT22;321;48.814;9.132;2023-05-07T04:30:42;13.50;99.90
678;DHT22;321;48.814;9.132;2023-05-07T04:33:08;13.60;99.90
678;DHT22;321;48.814;9.132;2023-05-07T04:35:34;13.70;99.90
678;DHT22;321;48.814;9.132;2023-05-07T04:38:00;13.70;99.90
678;DHT22;321;48.814;9.132;2023-05-07T04:40:25;13.60;99.90
678;DHT22;321;48.814;9.132;2023-05-07T04:42:51;13.70;99.90
678;DHT22;321;48.814;9.132;2023-05-07T04:45:18;13.90;99.90
678;DHT22;321;48.814;9.132;2023-05-07T04:47:44;14.00;99.90
678;DHT22;321;48.814;9.132;2023-05-07T04:50:09;14.00;99.90
678;DHT22;321;48.814;9.132;2023-05-07T04:52:36;14.10;99.90
678;DHT22;321;48.814;9.132;2023-05-07T04:55:02;14.20;99.90
678;DHT22;321;48.814;9.132;2023-05-07T04:57:27;14.20;99.90
678;DHT22;321;48.814;9.132;2023-05-07T04:59:53;14.20;99.90
678;DHT22;321;48.814;9.132;2023-05-07T05:02:19;14.20;99.90
678;DHT22;321;48.814;9.132;2023-05-07T05:04:45;14.20;99.90
678;DHT22;321;48.814;9.132;2023-05-07T05:07:10;14.20;99.90
678;DHT22;321;48.814;9.132;2023-05-07T05:09:36;14.10;99.90
678;DHT22;321;48.814;9.132;2023-05-07T05:12:02;14.10;99.90
678;DHT22;321;48.814;9.132;2023-05-07T05:14:27;14.20;99.90
678;DHT22;321;48.814;9.132;2023-05-07T05:16:53;14.30;99.90
678;DHT22;321;48.814;9.132;2023-05-07T05:19:18;14.30;99.90
678;DHT22;321;48.814;9.132;2023-05-07T05:21:44;14.40;99.90
678;DHT22;321;48.814;9.132;2023-05-07T05:24:09;14.30;99.90
678;DHT22;321;48.814;9.132;2023-05-07T05:26:35;14.40;99.90
678;DHT22;321;48.814;9.132;2023-05-07T05:29:00;14.50;99.90
678;DHT22;321;48.814;9.132;2023-05-07T05:31:26;14.70;99.90
678;DHT22;321;48.814;9.132;2023-05-07T05:33:51;14.80;99.90
678;DHT22;321;48.814;9.132;2023-05-07T05:36:17;14.90;99.90
678;DHT22;321;48.814;9.132;2023-05-07T05:38:43;15.00;99.90
678;DHT22;321;48.814;9.132;2023-05-07T05:41:09;15.20;99.90
678;DHT22;321;48.814;9.132;2023-05-07T05:43:35;15.30;99.90
678;DHT22;321;48.814;9.132;2023-05-07T05:46:00;15.50;99.90
678;DHT22;321;48.814;9.132;2023-05-07T05:48:26;15.80;99.90
678;DHT22;321;48.814;9.132;2023-05-07T05:50:51;15.90;99.90
678;DHT22;321;48.814;9.132;2023-05-07T05:53:17;16.10;99.90
678;DHT22;321;48.814;9.132;2023-05-07T05:55:43;16.20;99.90
678;DHT22;321;48.814;9.132;2023-05-07T05:58:09;16.20;99.90
678;DHT22;321;48.814;9.132;2023-05-07T06:00:34;16.30;99.90
678;DHT22;321;48.814;9.132;2023-05-07T06:03:00;16.50;99.90
678;DHT22;321;48.814;9.132;2023-05-07T06:05:26;16.70;99.90
678;DHT22;321;48.814;9.132;2023-05-07T06:07:51;17.00;99.90
678;DHT22;321;48.814;9.132;2023-05-07T06:10:17;17.30;99.90
678;DHT22;321;48.814;9.132;2023-05-07T06:12:43;17.50;99.90
678;DHT22;321;48.814;9.132;2023-05-07T06:15:09;17.70;99.90
678;DHT22;321;48.814;9.132;2023-05-07T06:17:34;17.90;99.90
678;DHT22;321;48.814;9.132;2023-05-07T06:20:00;18.10;99.90
678;DHT22;321;48.814;9.132;2023-05-07T06:22:25;18.30;99.90
678;DHT22;321;48.814;9.132;2023-05-07T06:24:51;18.40;99.90
678;DHT22;321;48.814;9.132;2023-05-07T06:27:16;18.50;99.90
678;DHT22;321;48.814;9.132;2023-05-07T06:29:42;18.70;99.90
678;DHT22;321;48.814;9.132;2023-05-07T06:32:13;18.80;99.90
678;DHT22;321;48.814;9.132;2023-05-07T06:34:39;19.10;99.90
678;DHT22;321;48.814;9.132;2023-05-07T06:37:05;19.70;99.90
678;DHT22;321;48.814;9.132;2023-05-07T06:39:31;20.80;99.90
678;DHT22;321;48.814;9.132;2023-05-07T06:41:57;21.70;99.90
678;DHT22;321;48.814;9.132;2023-05-07T06:44:23;23.20;99.90
678;DHT22;321;48.814;9.132;2023-05-07T06:46:49;24.40;95.30
678;DHT22;321;48.814;9.132;2023-05-07T06:49:15;25.80;93.50
678;DHT22;321;48.814;9.132;2023-05-07T06:51:40;27.00;90.90
678;DHT22;321;48.814;9.132;2023-05-07T06:54:06;27.10;90.30
678;DHT22;321;48.814;9.132;2023-05-07T06:56:32;26.00;90.80
678;DHT22;321;48.814;9.132;2023-05-07T06:59:00;24.30;92.40
678;DHT22;321;48.814;9.132;2023-05-07T07:01:25;24.30;92.90
678;DHT22;321;48.814;9.132;2023-05-07T07:03:51;23.80;93.10
678;DHT22;321;48.814;9.132;2023-05-07T07:06:17;23.60;93.70
678;DHT22;321;48.814;9.132;2023-05-07T07:08:42;23.50;93.60
678;DHT22;321;48.814;9.132;2023-05-07T07:11:08;24.00;93.70
678;DHT22;321;48.814;9.132;2023-05-07T07:13:34;24.10;92.80
678;DHT22;321;48.814;9.132;2023-05-07T07:16:00;24.40;92.00
678;DHT22;321;48.814;9.132;2023-05-07T07:18:25;24.90;91.20
678;DHT22;321;48.814;9.132;2023-05-07T07:20:51;25.40;90.70
678;DHT22;321;48.814;9.132;2023-05-07T07:23:16;25.70;90.30
678;DHT22;321;48.814;9.132;2023-05-07T07:25:42;25.60;91.70
678;DHT22;321;48.814;9.132;2023-05-07T07:28:07;26.50;90.20
678;DHT22;321;48.814;9.132;2023-05-07T07:30:33;29.90;83.00
678;DHT22;321;48.814;9.132;2023-05-07T07:32:59;31.10;76.30
678;DHT22;321;48.814;9.132;2023-05-07T07:35:31;32.10;69.90
678;DHT22;321;48.814;9.132;2023-05-07T07:37:57;31.40;68.70
678;DHT22;321;48.814;9.132;2023-05-07T07:40:24;31.20;67.30
678;DHT22;321;48.814;9.132;2023-05-07T07:42:50;32.30;67.00
678;DHT22;321;48.814;9.132;2023-05-07T07:45:16;33.20;65.20
678;DHT22;321;48.814;9.132;2023-05-07T07:47:42;33.40;61.20
678;DHT22;321;48.814;9.132;2023-05-07T07:50:08;32.40;62.10
678;DHT22;321;48.814;9.132;2023-05-07T07:52:34;30.30;67.70
678;DHT22;321;48.814;9.132;2023-05-07T07:55:00;28.90;71.50
678;DHT22;321;48.814;9.132;2023-05-07T07:57:25;29.30;69.90
678;DHT22;321;48.814;9.132;2023-05-07T07:59:51;29.10;69.70
678;DHT22;321;48.814;9.132;2023-05-07T08:02:17;29.10;69.80
678;DHT22;321;48.814;9.132;2023-05-07T08:04:43;28.30;73.30
678;DHT22;321;48.814;9.132;2023-05-07T08:07:09;27.30;78.40
678;DHT22;321;48.814;9.132;2023-05-07T08:09:36;27.40;75.70
678;DHT22;321;48.814;9.132;2023-05-07T08:12:02;27.40;76.30
678;DHT22;321;48.814;9.132;2023-05-07T08:14:27;27.40;75.60
678;DHT22;321;48.814;9.132;2023-05-07T08:16:54;27.30;75.80
678;DHT22;321;48.814;9.132;2023-05-07T08:19:20;27.70;82.30
678;DHT22;321;48.814;9.132;2023-05-07T08:21:46;27.90;76.10
678;DHT22;321;48.814;9.132;2023-05-07T08:24:13;27.70;79.60
678;DHT22;321;48.814;9.132;2023-05-07T08:26:39;27.90;76.00
678;DHT22;321;48.814;9.132;2023-05-07T08:29:05;28.30;76.30
678;DHT22;321;48.814;9.132;2023-05-07T08:31:31;28.90;72.90
678;DHT22;321;48.814;9.132;2023-05-07T08:33:57;28.80;72.60
678;DHT22;321;48.814;9.132;2023-05-07T08:36:23;28.50;74.20
678;DHT22;321;48.814;9.132;2023-05-07T08:38:49;28.40;75.00
678;DHT22;321;48.814;9.132;2023-05-07T08:41:15;28.10;74.40
678;DHT22;321;48.814;9.132;2023-05-07T08:43:41;28.40;73.60
678;DHT22;321;48.814;9.132;2023-05-07T08:46:09;27.90;76.40
678;DHT22;321;48.814;9.132;2023-05-07T08:48:35;28.40;74.20
678;DHT22;321;48.814;9.132;2023-05-07T08:51:01;28.50;74.90
678;DHT22;321;48.814;9.132;2023-05-07T08:53:27;29.50;73.90
678;DHT22;321;48.814;9.132;2023-05-07T08:55:53;30.40;74.70
678;DHT22;321;48.814;9.132;2023-05-07T08:58:19;30.80;67.60
678;DHT22;321;48.814;9.132;2023-05-07T09:00:44;31.30;66.40
678;DHT22;321;48.814;9.132;2023-05-07T09:03:11;32.30;70.70
678;DHT22;321;48.814;9.132;2023-05-07T09:05:38;32.40;64.40
678;DHT22;321;48.814;9.132;2023-05-07T09:08:04;32.80;62.00
678;DHT22;321;48.814;9.132;2023-05-07T09:10:33;33.10;60.30
678;DHT22;321;48.814;9.132;2023-05-07T09:12:59;33.40;60.20
678;DHT22;321;48.814;9.132;2023-05-07T09:15:28;33.30;61.20
678;DHT22;321;48.814;9.132;2023-05-07T09:17:53;34.00;57.50
678;DHT22;321;48.814;9.132;2023-05-07T09:20:19;33.70;57.70
678;DHT22;321;48.814;9.132;2023-05-07T09:22:44;33.10;57.90
678;DHT22;321;48.814;9.132;2023-05-07T09:25:10;33.00;59.00
678;DHT22;321;48.814;9.132;2023-05-07T09:27:36;32.50;60.50
678;DHT22;321;48.814;9.132;2023-05-07T09:30:06;32.00;60.60
678;DHT22;321;48.814;9.132;2023-05-07T09:32:37;32.80;58.80
678;DHT22;321;48.814;9.132;2023-05-07T09:35:03;33.40;57.40
678;DHT22;321;48.814;9.132;2023-05-07T09:37:31;33.90;56.20
678;DHT22;321;48.814;9.132;2023-05-07T09:39:56;33.30;56.60
678;DHT22;321;48.814;9.132;2023-05-07T09:42:25;31.80;58.20
678;DHT22;321;48.814;9.132;2023-05-07T09:44:52;32.10;59.50
678;DHT22;321;48.814;9.132;2023-05-07T09:47:19;32.60;60.60
678;DHT22;321;48.814;9.132;2023-05-07T09:49:47;33.80;57.40
678;DHT22;321;48.814;9.132;2023-05-07T09:52:14;33.10;57.30
678;DHT22;321;48.814;9.132;2023-05-07T09:54:40;33.10;58.60
678;DHT22;321;48.814;9.132;2023-05-07T09:57:10;33.80;57.90
678;DHT22;321;48.814;9.132;2023-05-07T09:59:37;33.30;56.60
678;DHT22;321;48.814;9.132;2023-05-07T10:02:04;34.70;58.30
678;DHT22;321;48.814;9.132;2023-05-07T10:04:31;35.70;53.70
678;DHT22;321;48.814;9.132;2023-05-07T10:06:59;35.00;54.20
678;DHT22;321;48.814;9.132;2023-05-07T10:09:26;35.60;54.90
678;DHT22;321;48.814;9.132;2023-05-07T10:11:52;36.10;55.80
678;DHT22;321;48.814;9.132;2023-05-07T10:14:21;35.70;53.80
678;DHT22;321;48.814;9.132;2023-05-07T10:16:48;36.20;53.20
678;DHT22;321;48.814;9.132;2023-05-07T10:19:14;35.80;54.40
678;DHT22;321;48.814;9.132;2023-05-07T10:21:44;36.50;53.20
678;DHT22;321;48.814;9.132;2023-05-07T10:24:20;36.30;51.40
678;DHT22;321;48.814;9.132;2023-05-07T10:26:49;37.10;50.00
678;DHT22;321;48.814;9.132;2023-05-07T10:29:44;36.50;49.90
678;DHT22;321;48.814;9.132;2023-05-07T10:32:41;36.20;51.10
678;DHT22;321;48.814;9.132;2023-05-07T10:35:17;35.90;51.00
678;DHT22;321;48.814;9.132;2023-05-07T10:37:45;35.40;51.50
678;DHT22;321;48.814;9.132;2023-05-07T10:40:12;33.80;51.30
678;DHT22;321;48.814;9.132;2023-05-07T10:42:38;32.70;55.40
678;DHT22;321;48.814;9.132;2023-05-07T10:45:16;31.60;56.30
678;DHT22;321;48.814;9.132;2023-05-07T10:48:20;31.20;56.50
678;DHT22;321;48.814;9.132;2023-05-07T10:50:49;30.70;59.40
678;DHT22;321;48.814;9.132;2023-05-07T10:58:37;29.10;61.30
678;DHT22;321;48.814;9.132;2023-05-07T11:01:03;28.80;62.90
678;DHT22;321;48.814;9.132;2023-05-07T11:03:29;28.20;64.00
678;DHT22;321;48.814;9.132;2023-05-07T11:06:12;28.00;64.60
678;DHT22;321;48.814;9.132;2023-05-07T11:08:57;27.50;66.20
678;DHT22;321;48.814;9.132;2023-05-07T11:11:48;27.10;66.10
678;DHT22;321;48.814;9.132;2023-05-07T11:17:08;26.90;71.00
678;DHT22;321;48.814;9.132;2023-05-07T11:19:54;27.20;66.90
678;DHT22;321;48.814;9.132;2023-05-07T11:25:05;27.10;69.70
678;DHT22;321;48.814;9.132;2023-05-07T11:27:31;27.20;67.40
678;DHT22;321;48.814;9.132;2023-05-07T11:30:00;27.00;71.40
678;DHT22;321;48.814;9.132;2023-05-07T11:32:30;26.50;72.50
678;DHT22;321;48.814;9.132;2023-05-07T11:34:57;26.00;73.20
678;DHT22;321;48.814;9.132;2023-05-07T11:37:24;26.00;74.80
678;DHT22;321;48.814;9.132;2023-05-07T11:39:51;26.00;82.00
678;DHT22;321;48.814;9.132;2023-05-07T11:42:31;26.10;77.30
678;DHT22;321;48.814;9.132;2023-05-07T11:44:57;26.10;80.60
678;DHT22;321;48.814;9.132;2023-05-07T11:47:24;26.20;76.30
678;DHT22;321;48.814;9.132;2023-05-07T11:49:52;26.10;77.30
678;DHT22;321;48.814;9.132;2023-05-07T11:52:20;25.90;75.40
678;DHT22;321;48.814;9.132;2023-05-07T11:54:57;25.70;84.30
678;DHT22;321;48.814;9.132;2023-05-07T11:57:24;25.40;79.30
678;DHT22;321;48.814;9.132;2023-05-07T11:59:57;25.30;79.00
678;DHT22;321;48.814;9.132;2023-05-07T12:02:23;25.00;80.80
678;DHT22;321;48.814;9.132;2023-05-07T12:04:54;24.90;83.70
678;DHT22;321;48.814;9.132;2023-05-07T12:07:20;24.80;91.20
678;DHT22;321;48.814;9.132;2023-05-07T12:09:46;24.60;90.20
678;DHT22;321;48.814;9.132;2023-05-07T12:12:13;24.60;91.90
678;DHT22;321;48.814;9.132;2023-05-07T12:14:41;24.50;95.00
678;DHT22;321;48.814;9.132;2023-05-07T12:17:08;24.20;93.80
678;DHT22;321;48.814;9.132;2023-05-07T12:19:35;23.80;92.10
678;DHT22;321;48.814;9.132;2023-05-07T12:22:04;23.60;90.90
678;DHT22;321;48.814;9.132;2023-05-07T12:27:09;22.90;95.30
678;DHT22;321;48.814;9.132;2023-05-07T12:29:34;22.70;96.60
678;DHT22;321;48.814;9.132;2023-05-07T12:32:00;22.50;99.90
678;DHT22;321;48.814;9.132;2023-05-07T12:34:26;22.20;99.70
678;DHT22;321;48.814;9.132;2023-05-07T12:36:51;22.00;99.90
678;DHT22;321;48.814;9.132;2023-05-07T12:39:17;21.70;99.90
678;DHT22;321;48.814;9.132;2023-05-07T12:41:55;21.50;99.90
678;DHT22;321;48.814;9.132;2023-05-07T12:44:33;21.40;99.90
678;DHT22;321;48.814;9.132;2023-05-07T12:47:02;21.00;99.90
678;DHT22;321;48.814;9.132;2023-05-07T12:49:28;20.80;99.90
678;DHT22;321;48.814;9.132;2023-05-07T12:51:54;20.60;99.90
678;DHT22;321;48.814;9.132;2023-05-07T12:57:06;20.10;99.90
678;DHT22;321;48.814;9.132;2023-05-07T13:01:58;19.40;99.90
678;DHT22;321;48.814;9.132;2023-05-07T13:04:24;18.90;99.90
678;DHT22;321;48.814;9.132;2023-05-07T13:06:50;18.50;99.90
678;DHT22;321;48.814;9.132;2023-05-07T13:09:16;18.30;99.90
678;DHT22;321;48.814;9.132;2023-05-07T13:11:41;18.30;99.90
678;DHT22;321;48.814;9.132;2023-05-07T13:14:07;18.40;99.90
678;DHT22;321;48.814;9.132;2023-05-07T13:16:33;18.30;99.90
678;DHT22;321;48.814;9.132;2023-05-07T13:18:58;18.30;99.90
678;DHT22;321;48.814;9.132;2023-05-07T13:21:24;18.20;99.90
678;DHT22;321;48.814;9.132;2023-05-07T13:23:49;18.10;99.90
678;DHT22;321;48.814;9.132;2023-05-07T13:26:15;17.80;99.90
678;DHT22;321;48.814;9.132;2023-05-07T13:28:41;17.50;99.90
678;DHT22;321;48.814;9.132;2023-05-07T13:31:07;17.50;99.90
678;DHT22;321;48.814;9.132;2023-05-07T13:33:32;17.40;99.90
678;DHT22;321;48.814;9.132;2023-05-07T13:35:58;17.40;99.90
678;DHT22;321;48.814;9.132;2023-05-07T13:38:25;16.70;99.90
678;DHT22;321;48.814;9.132;2023-05-07T13:40:51;16.30;99.90
678;DHT22;321;48.814;9.132;2023-05-07T13:43:16;16.00;99.90
678;DHT22;321;48.814;9.132;2023-05-07T13:45:44;15.90;99.90
678;DHT22;321;48.814;9.132;2023-05-07T13:48:09;15.90;99.90
678;DHT22;321;48.814;9.132;2023-05-07T13:50:35;16.00;99.90
678;DHT22;321;48.814;9.132;2023-05-07T13:53:01;16.00;99.90
678;DHT22;321;48.814;9.132;2023-05-07T13:55:28;15.90;99.90
678;DHT22;321;48.814;9.132;2023-05-07T13:57:59;16.00;99.90
678;DHT22;321;48.814;9.132;2023-05-07T14:00:27;16.10;99.90
678;DHT22;321;48.814;9.132;2023-05-07T14:02:53;16.30;99.90
678;DHT22;321;48.814;9.132;2023-05-07T14:05:18;16.30;99.90
678;DHT22;321;48.814;9.132;2023-05-07T14:07:44;16.50;99.90
678;DHT22;321;48.814;9.132;2023-05-07T14:10:10;16.60;99.90
678;DHT22;321;48.814;9.132;2023-05-07T14:12:36;16.60;99.90
678;DHT22;321;48.814;9.132;2023-05-07T14:15:02;16.60;99.90
678;DHT22;321;48.814;9.132;2023-05-07T14:17:28;16.70;99.90
678;DHT22;321;48.814;9.132;2023-05-07T14:19:54;16.70;99.90
678;DHT22;321;48.814;9.132;2023-05-07T14:22:21;16.80;99.90
678;DHT22;321;48.814;9.132;2023-05-07T14:24:47;16.80;99.90
678;DHT22;321;48.814;9.132;2023-05-07T14:27:13;16.80;99.90
678;DHT22;321;48.814;9.132;2023-05-07T14:29:38;16.80;99.90
678;DHT22;321;48.814;9.132;2023-05-07T14:32:04;16.70;99.90
678;DHT22;321;48.814;9.132;2023-05-07T14:34:31;16.60;99.90
678;DHT22;321;48.814;9.132;2023-05-07T14:36:57;16.60;99.90
678;DHT22;321;48.814;9.132;2023-05-07T14:39:22;16.50;99.90
678;DHT22;321;48.814;9.132;2023-05-07T14:41:48;16.50;99.90
678;DHT22;321;48.814;9.132;2023-05-07T14:44:13;16.60;99.90
678;DHT22;321;48.814;9.132;2023-05-07T14:46:39;16.70;99.90
678;DHT22;321;48.814;9.132;2023-05-07T14:49:05;16.60;99.90
678;DHT22;321;48.814;9.132;2023-05-07T14:51:32;16.50;99.90
678;DHT22;321;48.814;9.132;2023-05-07T14:53:58;16.60;99.90
678;DHT22;321;48.814;9.132;2023-05-07T14:56:24;16.70;99.90
678;DHT22;321;48.814;9.132;2023-05-07T14:58:49;16.80;99.90
678;DHT22;321;48.814;9.132;2023-05-07T15:01:15;16.90;99.90
678;DHT22;321;48.814;9.132;2023-05-07T15:03:41;16.90;99.90
678;DHT22;321;48.814;9.132;2023-05-07T15:06:06;17.10;99.90
678;DHT22;321;48.814;9.132;2023-05-07T15:08:32;17.30;99.90
678;DHT22;321;48.814;9.132;2023-05-07T15:10:57;17.60;99.90
678;DHT22;321;48.814;9.132;2023-05-07T15:13:23;17.70;99.90
678;DHT22;321;48.814;9.132;2023-05-07T15:15:48;17.90;99.90
678;DHT22;321;48.814;9.132;2023-05-07T15:18:15;18.00;99.90
678;DHT22;321;48.814;9.132;2023-05-07T15:20:41;18.00;99.90
678;DHT22;321;48.814;9.132;2023-05-07T15:23:08;18.10;99.90
678;DHT22;321;48.814;9.132;2023-05-07T15:25:39;18.30;99.90
678;DHT22;321;48.814;9.132;2023-05-07T15:28:05;18.40;99.90
678;DHT22;321;48.814;9.132;2023-05-07T15:30:31;18.10;99.90
678;DHT22;321;48.814;9.132;2023-05-07T15:32:56;18.00;99.90
678;DHT22;321;48.814;9.132;2023-05-07T15:35:22;18.20;99.90
678;DHT22;321;48.814;9.132;2023-05-07T15:37:49;18.30;99.90
678;DHT22;321;48.814;9.132;2023-05-07T15:40:20;18.40;99.90
678;DHT22;321;48.814;9.132;2023-05-07T15:42:46;18.60;99.90
678;DHT22;321;48.814;9.132;2023-05-07T15:45:12;18.70;99.90
678;DHT22;321;48.814;9.132;2023-05-07T15:47:37;18.80;99.90
678;DHT22;321;48.814;9.132;2023-05-07T15:50:03;18.90;99.90
678;DHT22;321;48.814;9.132;2023-05-07T15:52:29;19.00;99.90
678;DHT22;321;48.814;9.132;2023-05-07T15:54:56;19.00;99.90
678;DHT22;321;48.814;9.132;2023-05-07T15:57:22;19.00;99.90
678;DHT22;321;48.814;9.132;2023-05-07T15:59:48;19.10;99.90
678;DHT22;321;48.814;9.132;2023-05-07T16:02:14;19.10;99.90
678;DHT22;321;48.814;9.132;2023-05-07T16:04:39;19.20;99.90
678;DHT22;321;48.814;9.132;2023-05-07T16:07:05;19.20;99.90
678;DHT22;321;48.814;9.132;2023-05-07T16:09:34;19.30;99.90
678;DHT22;321;48.814;9.132;2023-05-07T16:12:00;19.30;99.90
678;DHT22;321;48.814;9.132;2023-05-07T16:14:25;19.30;99.90
678;DHT22;321;48.814;9.132;2023-05-07T16:16:51;19.20;99.90
678;DHT22;321;48.814;9.132;2023-05-07T16:19:17;19.10;99.90
678;DHT22;321;48.814;9.132;2023-05-07T16:21:43;19.10;99.90
678;DHT22;321;48.814;9.132;2023-05-07T16:24:09;19.10;99.90
678;DHT22;321;48.814;9.132;2023-05-07T16:26:34;19.10;99.90
678;DHT22;321;48.814;9.132;2023-05-07T16:29:00;19.20;99.90
678;DHT22;321;48.814;9.132;2023-05-07T16:31:26;19.20;99.90
678;DHT22;321;48.814;9.132;2023-05-07T16:33:52;19.20;99.90
678;DHT22;321;48.814;9.132;2023-05-07T16:36:17;19.30;99.90
678;DHT22;321;48.814;9.132;2023-05-07T16:38:43;19.30;99.90
678;DHT22;321;48.814;9.132;2023-05-07T16:41:09;19.30;99.90
678;DHT22;321;48.814;9.132;2023-05-07T16:43:35;19.30;99.90
678;DHT22;321;48.814;9.132;2023-05-07T16:46:00;19.20;99.90
678;DHT22;321;48.814;9.132;2023-05-07T16:48:26;19.20;99.90
678;DHT22;321;48.814;9.132;2023-05-07T16:50:51;19.10;99.90